createdAt,value
2023-07-08T00:01:15.332Z,20.81
2023-07-08T00:03:42.698Z,20.87
2023-07-08T00:06:17.410Z,20.77
2023-07-08T00:08:44.254Z,20.81
2023-07-08T00:11:16.125Z,20.86
2023-07-08T00:13:43.322Z,20.90
2023-07-08T00:16:20.402Z,20.83
2023-07-08T00:18:48.356Z,20.83
2023-07-08T00:21:17.636Z,20.79
2023-07-08T00:23:52.252Z,20.74
2023-07-08T00:26:26.048Z,20.73
2023-07-08T00:28:54.005Z,20.61
2023-07-08T00:31:20.996Z,20.57
2023-07-08T00:33:48.150Z,20.50
2023-07-08T00:36:17.143Z,20.52
2023-07-08T00:38:45.070Z,20.46
2023-07-08T00:41:25.774Z,20.44
2023-07-08T00:43:55.374Z,20.32
2023-07-08T00:46:28.553Z,20.36
2023-07-08T00:49:10.508Z,20.42
2023-07-08T00:51:39.724Z,20.49
2023-07-08T00:54:17.478Z,20.42
2023-07-08T00:56:49.333Z,20.27
2023-07-08T00:59:28.180Z,20.33
2023-07-08T01:01:59.186Z,20.29
2023-07-08T01:04:33.625Z,20.29
2023-07-08T01:07:03.647Z,20.22
2023-07-08T01:09:37.615Z,20.28
2023-07-08T01:12:09.057Z,20.32
2023-07-08T01:14:39.044Z,20.28
2023-07-08T01:17:06.763Z,20.25
2023-07-08T01:19:33.869Z,20.22
2023-07-08T01:22:04.501Z,20.13
2023-07-08T01:24:32.766Z,20.15
2023-07-08T01:27:02.118Z,20.15
2023-07-08T01:29:29.076Z,20.20
2023-07-08T01:32:00.219Z,20.20
2023-07-08T01:34:27.416Z,20.20
2023-07-08T01:36:58.212Z,20.13
2023-07-08T01:39:26.783Z,20.19
2023-07-08T01:41:53.623Z,20.07
2023-07-08T01:44:29.893Z,20.04
2023-07-08T01:47:05.351Z,19.69
2023-07-08T01:49:35.075Z,19.62
2023-07-08T01:52:03.125Z,19.53
2023-07-08T01:54:30.204Z,19.54
2023-07-08T01:57:00.542Z,19.55
2023-07-08T01:59:27.433Z,19.41
2023-07-08T02:01:54.499Z,19.36
2023-07-08T02:04:22.607Z,19.42
2023-07-08T02:06:54.556Z,19.37
2023-07-08T02:09:21.921Z,19.26
2023-07-08T02:11:48.935Z,19.27
2023-07-08T02:14:15.762Z,19.29
2023-07-08T02:16:42.592Z,19.30
2023-07-08T02:19:13.980Z,19.23
2023-07-08T02:21:41.211Z,19.19
2023-07-08T02:24:08.984Z,19.21
2023-07-08T02:26:35.847Z,19.23
2023-07-08T02:29:02.894Z,19.23
2023-07-08T02:31:29.798Z,19.25
2023-07-08T02:33:56.659Z,19.25
2023-07-08T02:36:23.547Z,19.20
2023-07-08T02:38:50.590Z,19.16
2023-07-08T02:41:17.855Z,19.20
2023-07-08T02:43:44.703Z,19.24
2023-07-08T02:46:11.719Z,19.26
2023-07-08T02:48:38.775Z,19.31
2023-07-08T02:51:07.373Z,19.31
2023-07-08T02:53:34.329Z,19.26
2023-07-08T02:56:01.194Z,19.25
2023-07-08T02:58:28.063Z,19.24
2023-07-08T03:00:56.478Z,19.25
2023-07-08T03:03:23.627Z,19.31
2023-07-08T03:06:02.062Z,19.39
2023-07-08T03:08:29.524Z,19.41
2023-07-08T03:11:02.433Z,19.43
2023-07-08T03:13:30.350Z,19.48
2023-07-08T03:15:58.880Z,19.59
2023-07-08T03:18:26.561Z,19.66
2023-07-08T03:20:58.233Z,19.65
2023-07-08T03:23:26.343Z,19.75
2023-07-08T03:25:53.568Z,19.85
2023-07-08T03:28:20.424Z,19.84
2023-07-08T03:30:53.729Z,19.97
2023-07-08T03:33:21.342Z,20.03
2023-07-08T03:35:48.551Z,20.18
2023-07-08T03:38:15.576Z,20.26
2023-07-08T03:40:42.542Z,20.38
2023-07-08T03:43:09.422Z,20.52
2023-07-08T03:45:36.417Z,20.60
2023-07-08T03:48:03.482Z,20.77
2023-07-08T03:50:30.377Z,20.96
2023-07-08T03:52:57.924Z,21.16
2023-07-08T03:55:24.878Z,21.26
2023-07-08T03:57:51.664Z,21.46
2023-07-08T04:00:18.775Z,21.40
2023-07-08T04:02:47.092Z,21.50
2023-07-08T04:05:18.025Z,21.52
2023-07-08T04:07:45.150Z,21.67
2023-07-08T04:10:12.579Z,21.78
2023-07-08T04:12:40.132Z,22.01
2023-07-08T04:15:09.992Z,22.34
2023-07-08T04:17:42.611Z,22.69
2023-07-08T04:20:10.486Z,23.05
2023-07-08T04:22:37.912Z,23.35
2023-07-08T04:25:05.227Z,23.61
2023-07-08T04:27:32.145Z,23.88
2023-07-08T04:29:59.383Z,24.05
2023-07-08T04:32:26.402Z,24.10
2023-07-08T04:34:53.974Z,23.91
2023-07-08T04:37:21.072Z,23.43
2023-07-08T04:39:48.346Z,23.67
2023-07-08T04:42:16.100Z,23.70
2023-07-08T04:44:43.490Z,23.68
2023-07-08T04:47:10.368Z,24.01
2023-07-08T04:49:37.248Z,24.21
2023-07-08T04:52:04.447Z,24.19
2023-07-08T04:54:31.367Z,24.14
2023-07-08T04:56:58.314Z,23.98
2023-07-08T04:59:26.506Z,24.16
2023-07-08T05:01:54.422Z,24.35
2023-07-08T05:04:23.039Z,24.69
2023-07-08T05:06:50.844Z,24.75
2023-07-08T05:09:18.268Z,24.78
2023-07-08T05:11:45.774Z,24.90
2023-07-08T05:14:14.465Z,24.78
2023-07-08T05:16:41.634Z,25.01
2023-07-08T05:19:09.158Z,25.23
2023-07-08T05:21:36.112Z,25.40
2023-07-08T05:24:04.576Z,25.63
2023-07-08T05:26:32.007Z,25.80
2023-07-08T05:28:58.799Z,26.01
2023-07-08T05:31:38.101Z,26.04
2023-07-08T05:34:12.703Z,26.16
2023-07-08T05:36:39.598Z,26.41
2023-07-08T05:39:06.486Z,26.57
2023-07-08T05:41:33.449Z,26.45
2023-07-08T05:44:00.354Z,26.49
2023-07-08T05:46:27.458Z,26.40
2023-07-08T05:48:54.562Z,26.04
2023-07-08T05:51:22.010Z,25.94
2023-07-08T05:53:49.067Z,26.08
2023-07-08T05:56:16.258Z,26.25
2023-07-08T05:58:43.261Z,26.24
2023-07-08T06:01:12.308Z,26.17
2023-07-08T06:03:42.439Z,26.53
2023-07-08T06:06:09.424Z,26.85
2023-07-08T06:08:36.412Z,27.16
2023-07-08T06:11:03.972Z,26.17
2023-07-08T06:13:31.224Z,25.72
2023-07-08T06:15:58.236Z,25.97
2023-07-08T06:18:25.308Z,26.26
2023-07-08T06:20:56.683Z,26.38
2023-07-08T06:23:23.885Z,26.33
2023-07-08T06:25:51.565Z,25.77
2023-07-08T06:28:18.885Z,25.82
2023-07-08T06:30:45.714Z,26.05
2023-07-08T06:33:15.124Z,26.35
2023-07-08T06:35:42.412Z,26.74
2023-07-08T06:38:09.584Z,27.15
2023-07-08T06:40:36.786Z,26.88
2023-07-08T06:43:04.511Z,26.55
2023-07-08T06:45:34.395Z,26.52
2023-07-08T06:48:04.229Z,26.71
2023-07-08T06:50:33.732Z,26.63
2023-07-08T06:53:03.115Z,27.00
2023-07-08T06:55:30.121Z,26.51
2023-07-08T06:57:57.106Z,26.00
2023-07-08T07:00:24.036Z,26.56
2023-07-08T07:02:54.111Z,27.19
2023-07-08T07:05:23.428Z,27.66
2023-07-08T07:07:51.052Z,27.06
2023-07-08T07:10:17.949Z,27.24
2023-07-08T07:12:44.900Z,26.93
2023-07-08T07:15:11.889Z,26.65
2023-07-08T07:17:39.261Z,26.34
2023-07-08T07:20:06.864Z,26.88
2023-07-08T07:22:33.883Z,27.49
2023-07-08T07:25:07.509Z,27.40
2023-07-08T07:27:34.394Z,27.20
2023-07-08T07:30:06.516Z,26.96
2023-07-08T07:32:33.545Z,27.17
2023-07-08T07:35:00.407Z,27.80
2023-07-08T07:37:27.249Z,28.56
2023-07-08T07:39:54.348Z,29.02
2023-07-08T07:42:21.422Z,29.18
2023-07-08T07:44:48.599Z,28.70
2023-07-08T07:47:16.203Z,26.72
2023-07-08T07:49:43.054Z,26.61
2023-07-08T07:52:09.998Z,26.79
2023-07-08T07:54:36.989Z,26.66
2023-07-08T07:57:03.981Z,26.07
2023-07-08T07:59:30.947Z,25.57
2023-07-08T08:01:58.022Z,25.72
2023-07-08T08:04:24.923Z,26.31
2023-07-08T08:06:51.836Z,27.09
2023-07-08T08:09:18.758Z,27.80
2023-07-08T08:11:45.694Z,28.28
2023-07-08T08:14:12.849Z,28.67
2023-07-08T08:16:39.950Z,27.67
2023-07-08T08:19:09.503Z,27.17
2023-07-08T08:21:39.333Z,27.07
2023-07-08T08:24:06.623Z,27.30
2023-07-08T08:26:33.644Z,27.78
2023-07-08T08:29:05.009Z,27.52
2023-07-08T08:31:32.245Z,27.74
2023-07-08T08:33:59.269Z,28.07
2023-07-08T08:36:26.439Z,28.68
2023-07-08T08:38:53.433Z,28.87
2023-07-08T08:41:27.223Z,28.43
2023-07-08T08:43:56.503Z,27.94
2023-07-08T08:46:59.858Z,28.28
2023-07-08T08:49:33.892Z,28.26
2023-07-08T08:52:01.088Z,27.89
2023-07-08T08:54:31.445Z,27.55
2023-07-08T08:57:21.281Z,27.90
2023-07-08T08:59:55.995Z,27.70
2023-07-08T09:02:35.015Z,27.40
2023-07-08T09:05:08.505Z,27.62
2023-07-08T09:08:01.693Z,27.30
2023-07-08T09:11:01.455Z,26.68
2023-07-08T09:13:37.556Z,26.82
2023-07-08T09:16:46.489Z,27.21
2023-07-08T09:19:16.240Z,27.44
2023-07-08T09:21:59.469Z,28.12
2023-07-08T09:25:12.804Z,29.13
2023-07-08T09:27:39.839Z,29.24
2023-07-08T09:30:15.202Z,29.49
2023-07-08T09:32:42.282Z,28.82
2023-07-08T09:35:17.524Z,28.13
2023-07-08T09:37:48.463Z,28.63
2023-07-08T09:40:19.580Z,28.99
2023-07-08T09:42:51.555Z,29.14
2023-07-08T09:45:24.754Z,29.37
2023-07-08T09:47:58.068Z,29.45
2023-07-08T09:50:29.362Z,29.42
2023-07-08T09:53:01.450Z,29.48
2023-07-08T09:55:31.161Z,29.49
2023-07-08T09:58:00.854Z,29.64
2023-07-08T10:00:33.964Z,29.82
2023-07-08T10:03:07.231Z,29.33
2023-07-08T10:05:38.959Z,29.25
2023-07-08T10:08:29.293Z,29.29
2023-07-08T10:11:13.860Z,29.18
2023-07-08T10:13:45.723Z,28.50
2023-07-08T10:16:28.578Z,27.55
2023-07-08T10:18:56.061Z,26.59
2023-07-08T10:21:22.975Z,26.16
2023-07-08T10:23:50.042Z,25.38
2023-07-08T10:26:31.470Z,24.69
2023-07-08T10:29:17.050Z,24.55
2023-07-08T10:32:03.836Z,23.96
2023-07-08T10:35:05.036Z,23.64
2023-07-08T10:38:06.873Z,23.42
2023-07-08T10:40:50.828Z,23.19
2023-07-08T10:43:49.508Z,22.84
2023-07-08T10:46:27.686Z,22.35
2023-07-08T10:49:31.928Z,22.18
2023-07-08T10:52:17.218Z,21.87
2023-07-08T10:55:00.236Z,21.45
2023-07-08T10:58:02.008Z,21.15
2023-07-08T11:00:38.121Z,20.94
2023-07-08T11:03:23.665Z,20.68
2023-07-08T11:06:03.794Z,20.69
2023-07-08T11:08:40.875Z,20.79
2023-07-08T11:11:15.549Z,20.99
2023-07-08T11:13:54.354Z,21.07
2023-07-08T11:16:26.472Z,21.03
2023-07-08T11:19:11.475Z,21.16
2023-07-08T11:21:48.958Z,21.21
2023-07-08T11:24:31.021Z,21.30
2023-07-08T11:27:07.206Z,21.20
2023-07-08T11:30:12.814Z,21.14
2023-07-08T11:32:41.148Z,21.17
2023-07-08T11:35:19.992Z,21.24
2023-07-08T11:37:48.043Z,21.17
2023-07-08T11:40:25.158Z,20.98
2023-07-08T11:42:59.712Z,20.69
2023-07-08T11:45:32.850Z,20.80
2023-07-08T11:48:13.612Z,20.36
2023-07-08T11:50:45.889Z,20.34
2023-07-08T11:53:34.130Z,20.59
2023-07-08T11:56:19.553Z,20.93
2023-07-08T11:58:52.535Z,21.32
2023-07-08T12:01:30.296Z,21.11
2023-07-08T12:04:18.120Z,21.03
2023-07-08T12:06:50.315Z,21.05
2023-07-08T12:09:36.588Z,21.21
2023-07-08T12:12:11.607Z,21.34
2023-07-08T12:14:38.521Z,21.59
2023-07-08T12:17:11.192Z,21.81
2023-07-08T12:19:38.561Z,21.91
2023-07-08T12:22:05.842Z,21.74
2023-07-08T12:24:32.838Z,21.91
2023-07-08T12:26:59.860Z,21.66
2023-07-08T12:29:27.146Z,21.47
2023-07-08T12:31:54.075Z,21.65
2023-07-08T12:34:23.080Z,21.81
2023-07-08T12:36:50.911Z,21.79
2023-07-08T12:39:18.779Z,21.82
2023-07-08T12:41:47.566Z,22.04
2023-07-08T12:44:25.510Z,22.37
2023-07-08T12:46:55.264Z,22.69
2023-07-08T12:49:23.212Z,22.68
2023-07-08T12:51:50.247Z,22.55
2023-07-08T12:54:17.162Z,22.36
2023-07-08T12:56:46.759Z,22.08
2023-07-08T12:59:20.635Z,21.94
2023-07-08T13:01:49.390Z,21.90
2023-07-08T13:04:17.429Z,22.05
2023-07-08T13:06:47.255Z,22.23
2023-07-08T13:09:24.907Z,22.31
2023-07-08T13:11:53.268Z,22.23
2023-07-08T13:14:21.518Z,22.40
2023-07-08T13:16:48.995Z,22.55
2023-07-08T13:19:16.325Z,22.57
2023-07-08T13:21:43.382Z,22.57
2023-07-08T13:24:13.883Z,22.63
2023-07-08T13:26:45.848Z,22.40
2023-07-08T13:29:16.330Z,22.07
2023-07-08T13:31:49.383Z,22.02
2023-07-08T13:34:21.332Z,22.35
2023-07-08T13:36:52.117Z,22.25
2023-07-08T13:39:35.144Z,22.61
2023-07-08T13:42:02.686Z,22.69
2023-07-08T13:44:29.946Z,22.72
2023-07-08T13:47:01.279Z,22.61
2023-07-08T13:49:32.414Z,22.36
2023-07-08T13:52:25.396Z,21.99
2023-07-08T13:54:55.864Z,21.99
2023-07-08T13:57:30.537Z,22.22
2023-07-08T13:59:57.538Z,22.34
2023-07-08T14:02:30.788Z,22.21
2023-07-08T14:04:59.291Z,22.12
2023-07-08T14:07:31.995Z,22.24
2023-07-08T14:09:59.451Z,22.51
2023-07-08T14:12:26.578Z,22.69
2023-07-08T14:14:53.513Z,22.61
2023-07-08T14:17:25.993Z,22.46
2023-07-08T14:19:53.427Z,22.47
2023-07-08T14:22:31.124Z,22.59
2023-07-08T14:25:06.573Z,22.88
2023-07-08T14:27:33.631Z,23.42
2023-07-08T14:30:00.580Z,23.78
2023-07-08T14:32:32.768Z,23.91
2023-07-08T14:35:26.498Z,23.65
2023-07-08T14:37:55.723Z,23.24
2023-07-08T14:40:22.332Z,23.47
2023-07-08T14:42:51.491Z,23.69
2023-07-08T14:45:18.463Z,23.71
2023-07-08T14:47:45.485Z,23.43
2023-07-08T14:50:15.806Z,23.28
2023-07-08T14:52:42.829Z,22.49
2023-07-08T14:55:10.981Z,22.38
2023-07-08T14:57:49.645Z,22.44
2023-07-08T15:00:19.112Z,22.65
2023-07-08T15:02:48.764Z,22.64
2023-07-08T15:05:25.527Z,22.59
2023-07-08T15:07:54.367Z,22.90
2023-07-08T15:10:24.927Z,23.05
2023-07-08T15:12:52.062Z,22.81
2023-07-08T15:15:28.768Z,22.80
2023-07-08T15:17:58.191Z,22.66
2023-07-08T15:20:26.609Z,22.38
2023-07-08T15:22:53.744Z,22.20
2023-07-08T15:25:20.741Z,21.95
2023-07-08T15:27:52.129Z,21.71
2023-07-08T15:30:25.806Z,21.47
2023-07-08T15:32:53.762Z,21.49
2023-07-08T15:35:29.191Z,21.35
2023-07-08T15:37:56.022Z,21.26
2023-07-08T15:40:24.352Z,21.31
2023-07-08T15:42:55.325Z,21.24
2023-07-08T15:45:29.423Z,21.25
2023-07-08T15:47:56.476Z,21.27
2023-07-08T15:50:27.551Z,21.10
2023-07-08T15:52:55.474Z,21.07
2023-07-08T15:55:26.674Z,20.77
2023-07-08T15:58:01.960Z,20.72
2023-07-08T16:00:32.849Z,20.77
2023-07-08T16:03:02.430Z,20.94
2023-07-08T16:05:29.782Z,20.95
2023-07-08T16:07:57.584Z,21.04
2023-07-08T16:10:26.410Z,21.17
2023-07-08T16:12:54.511Z,21.00
2023-07-08T16:15:33.187Z,20.84
2023-07-08T16:18:01.748Z,20.84
2023-07-08T16:20:30.429Z,20.71
2023-07-08T16:22:57.772Z,20.46
2023-07-08T16:25:51.468Z,20.47
2023-07-08T16:28:27.365Z,20.57
2023-07-08T16:30:54.734Z,20.44
2023-07-08T16:33:21.773Z,20.40
2023-07-08T16:35:48.822Z,20.17
2023-07-08T16:38:16.987Z,20.02
2023-07-08T16:40:44.260Z,20.01
2023-07-08T16:43:37.502Z,19.95
2023-07-08T16:46:04.424Z,19.93
2023-07-08T16:48:33.545Z,19.76
2023-07-08T16:51:00.776Z,19.64
2023-07-08T16:53:27.874Z,19.58
2023-07-08T16:55:54.820Z,19.64
2023-07-08T16:58:21.843Z,19.54
2023-07-08T17:00:49.227Z,19.48
2023-07-08T17:03:17.993Z,19.42
2023-07-08T17:05:45.271Z,19.36
2023-07-08T17:08:16.358Z,19.33
2023-07-08T17:10:44.123Z,19.34
2023-07-08T17:13:11.905Z,19.36
2023-07-08T17:15:39.734Z,19.37
2023-07-08T17:18:07.401Z,19.42
2023-07-08T17:20:39.879Z,19.45
2023-07-08T17:23:20.814Z,19.52
2023-07-08T17:25:50.552Z,19.59
2023-07-08T17:28:17.528Z,19.51
2023-07-08T17:30:51.214Z,19.44
2023-07-08T17:33:21.302Z,19.37
2023-07-08T17:35:48.870Z,19.32
2023-07-08T17:38:22.436Z,19.25
2023-07-08T17:40:49.412Z,19.11
2023-07-08T17:43:16.351Z,19.06
2023-07-08T17:45:45.970Z,18.98
2023-07-08T17:48:25.616Z,19.00
2023-07-08T17:50:53.980Z,18.97
2023-07-08T17:53:21.229Z,18.92
2023-07-08T17:55:51.338Z,18.80
2023-07-08T17:58:19.256Z,18.77
2023-07-08T18:00:49.450Z,18.57
2023-07-08T18:03:18.402Z,18.57
2023-07-08T18:05:45.371Z,18.51
2023-07-08T18:08:12.273Z,18.49
2023-07-08T18:10:39.188Z,18.46
2023-07-08T18:13:15.950Z,18.34
2023-07-08T18:15:44.997Z,18.28
2023-07-08T18:18:13.266Z,18.22
2023-07-08T18:20:46.687Z,18.33
2023-07-08T18:23:22.070Z,18.38
2023-07-08T18:25:49.484Z,18.40
2023-07-08T18:28:16.656Z,18.35
2023-07-08T18:30:44.903Z,18.35
2023-07-08T18:33:19.070Z,18.47
2023-07-08T18:35:47.617Z,18.54
2023-07-08T18:38:14.852Z,18.54
2023-07-08T18:40:44.146Z,18.57
2023-07-08T18:43:20.568Z,18.46
2023-07-08T18:45:48.493Z,18.47
2023-07-08T18:48:17.691Z,18.32
2023-07-08T18:50:49.344Z,18.25
2023-07-08T18:53:18.071Z,18.34
2023-07-08T18:55:45.944Z,18.37
2023-07-08T18:58:14.307Z,18.33
2023-07-08T19:00:42.504Z,18.38
2023-07-08T19:03:30.639Z,18.30
2023-07-08T19:05:57.613Z,18.37
2023-07-08T19:08:24.500Z,18.41
2023-07-08T19:10:55.130Z,18.43
2023-07-08T19:13:23.652Z,18.48
2023-07-08T19:15:50.992Z,18.48
2023-07-08T19:18:18.132Z,18.47
2023-07-08T19:20:46.620Z,18.55
2023-07-08T19:23:25.886Z,18.64
2023-07-08T19:25:53.385Z,18.60
2023-07-08T19:28:20.284Z,18.49
2023-07-08T19:30:55.207Z,18.58
2023-07-08T19:33:23.183Z,18.65
2023-07-08T19:35:50.139Z,18.65
2023-07-08T19:38:17.946Z,18.65
2023-07-08T19:40:51.122Z,18.75
2023-07-08T19:43:22.886Z,18.85
2023-07-08T19:45:49.899Z,18.88
2023-07-08T19:48:16.813Z,18.76
2023-07-08T19:50:44.287Z,18.80
2023-07-08T19:53:12.519Z,18.84
2023-07-08T19:55:41.736Z,18.80
2023-07-08T19:58:13.081Z,18.82
2023-07-08T20:00:43.139Z,18.97
2023-07-08T20:03:12.516Z,19.07
2023-07-08T20:05:40.384Z,19.20
2023-07-08T20:08:19.330Z,19.03
2023-07-08T20:10:50.063Z,18.81
2023-07-08T20:13:16.981Z,18.80
2023-07-08T20:15:44.335Z,18.87
2023-07-08T20:18:13.543Z,18.79
2023-07-08T20:20:40.681Z,18.87
2023-07-08T20:23:16.424Z,18.89
2023-07-08T20:25:45.608Z,18.98
2023-07-08T20:28:15.090Z,18.99
2023-07-08T20:30:42.771Z,19.09
2023-07-08T20:33:14.533Z,19.19
2023-07-08T20:35:42.018Z,19.24
2023-07-08T20:38:13.852Z,19.28
2023-07-08T20:40:41.364Z,19.36
2023-07-08T20:43:20.995Z,19.33
2023-07-08T20:45:50.259Z,19.31
2023-07-08T20:48:23.987Z,19.31
2023-07-08T20:50:51.514Z,19.43
2023-07-08T20:53:20.008Z,19.47
2023-07-08T20:55:48.218Z,19.62
2023-07-08T20:58:21.304Z,19.41
2023-07-08T21:00:49.186Z,19.49
2023-07-08T21:03:18.773Z,19.56
2023-07-08T21:05:48.103Z,19.70
2023-07-08T21:08:28.591Z,19.53
2023-07-08T21:10:57.427Z,19.47
2023-07-08T21:13:25.187Z,19.13
2023-07-08T21:15:52.240Z,19.08
2023-07-08T21:18:22.057Z,19.14
2023-07-08T21:20:49.005Z,19.08
2023-07-08T21:23:20.254Z,18.86
2023-07-08T21:25:50.774Z,19.03
2023-07-08T21:28:30.569Z,18.95
2023-07-08T21:30:58.640Z,18.91
2023-07-08T21:33:25.597Z,19.07
2023-07-08T21:35:53.727Z,19.02
2023-07-08T21:38:23.360Z,19.21
2023-07-08T21:40:54.578Z,19.16
2023-07-08T21:43:24.604Z,19.21
2023-07-08T21:45:52.890Z,19.23
2023-07-08T21:48:20.910Z,19.01
2023-07-08T21:50:53.875Z,19.17
2023-07-08T21:53:26.797Z,19.37
2023-07-08T21:55:54.470Z,19.28
2023-07-08T21:58:22.479Z,19.40
2023-07-08T22:00:50.971Z,19.36
2023-07-08T22:03:20.932Z,19.40
2023-07-08T22:05:48.905Z,19.14
2023-07-08T22:08:21.428Z,18.97
2023-07-08T22:10:51.250Z,19.19
2023-07-08T22:13:24.962Z,19.32
2023-07-08T22:15:52.001Z,19.41
2023-07-08T22:18:18.963Z,19.30
2023-07-08T22:20:46.019Z,19.27
2023-07-08T22:23:12.804Z,19.36
2023-07-08T22:25:39.668Z,19.35
2023-07-08T22:28:06.545Z,19.31
2023-07-08T22:30:34.006Z,19.31
2023-07-08T22:33:00.893Z,19.40
2023-07-08T22:35:27.836Z,19.30
2023-07-08T22:37:54.722Z,19.23
2023-07-08T22:40:21.522Z,19.20
2023-07-08T22:42:48.461Z,19.32
2023-07-08T22:45:16.513Z,19.37
2023-07-08T22:47:45.137Z,19.46
2023-07-08T22:50:13.397Z,19.47
2023-07-08T22:52:40.429Z,19.51
2023-07-08T22:55:17.124Z,19.46
2023-07-08T22:57:46.555Z,19.38
2023-07-08T23:00:23.118Z,19.23
2023-07-08T23:02:50.319Z,19.23
2023-07-08T23:05:23.266Z,19.21
2023-07-08T23:07:50.236Z,19.11
2023-07-08T23:10:17.291Z,19.16
2023-07-08T23:12:44.590Z,19.08
2023-07-08T23:15:12.586Z,19.04
2023-07-08T23:17:43.236Z,18.88
2023-07-08T23:20:16.636Z,18.73
2023-07-08T23:22:44.107Z,18.81
2023-07-08T23:25:11.862Z,18.89
2023-07-08T23:27:40.080Z,18.91
2023-07-08T23:30:14.693Z,18.97
2023-07-08T23:32:41.666Z,18.89
2023-07-08T23:35:08.910Z,18.82
2023-07-08T23:37:35.814Z,18.84
2023-07-08T23:40:02.694Z,18.80
2023-07-08T23:42:29.551Z,18.81
2023-07-08T23:44:56.484Z,18.68
2023-07-08T23:47:26.860Z,18.65
2023-07-08T23:49:53.749Z,18.66
2023-07-08T23:52:20.556Z,18.70
2023-07-08T23:54:47.513Z,18.66
2023-07-08T23:57:19.755Z,18.65
2023-07-08T23:59:47.645Z,18.38
